sensor_id;sensor_type;location;lat;lon;timestamp;temperature;humidity
48575;DHT22;34352;51.084;3.712;2023-10-09T00:19:47;16.60;21.80
48575;DHT22;34352;51.084;3.712;2023-10-09T00:43:53;16.80;7.90
48575;DHT22;34352;51.084;3.712;2023-10-09T00:49:41;16.70;11.70
48575;DHT22;34352;51.084;3.712;2023-10-09T00:55:08;16.70;8.20
48575;DHT22;34352;51.084;3.712;2023-10-09T01:48:50;16.50;10.40
48575;DHT22;34352;51.084;3.712;2023-10-09T01:57:38;16.40;13.10
48575;DHT22;34352;51.084;3.712;2023-10-09T04:55:23;15.90;51.00
48575;DHT22;34352;51.084;3.712;2023-10-09T08:10:17;19.00;1.00
48575;DHT22;34352;51.084;3.712;2023-10-09T08:12:49;20.10;1.00
48575;DHT22;34352;51.084;3.712;2023-10-09T08:15:19;20.50;1.00
48575;DHT22;34352;51.084;3.712;2023-10-09T08:17:54;20.20;1.00
48575;DHT22;34352;51.084;3.712;2023-10-09T08:20:25;20.30;1.00
48575;DHT22;34352;51.084;3.712;2023-10-09T08:22:52;20.30;1.00
48575;DHT22;34352;51.084;3.712;2023-10-09T08:25:24;20.10;1.00
48575;DHT22;34352;51.084;3.712;2023-10-09T08:27:55;19.80;1.00
48575;DHT22;34352;51.084;3.712;2023-10-09T08:30:24;19.70;1.00
48575;DHT22;34352;51.084;3.712;2023-10-09T08:32:51;19.50;1.00
48575;DHT22;34352;51.084;3.712;2023-10-09T08:35:36;19.50;1.00
48575;DHT22;34352;51.084;3.712;2023-10-09T08:38:33;19.60;1.00
48575;DHT22;34352;51.084;3.712;2023-10-09T08:41:10;19.90;1.00
48575;DHT22;34352;51.084;3.712;2023-10-09T08:44:20;19.90;1.00
48575;DHT22;34352;51.084;3.712;2023-10-09T08:50:11;19.70;1.00
48575;DHT22;34352;51.084;3.712;2023-10-09T08:52:47;19.70;1.00
48575;DHT22;34352;51.084;3.712;2023-10-09T08:55:23;19.70;1.00
48575;DHT22;34352;51.084;3.712;2023-10-09T08:58:01;19.70;1.00
48575;DHT22;34352;51.084;3.712;2023-10-09T09:00:59;19.70;1.00
48575;DHT22;34352;51.084;3.712;2023-10-09T09:06:56;19.70;1.00
48575;DHT22;34352;51.084;3.712;2023-10-09T09:09:38;19.80;1.00
48575;DHT22;34352;51.084;3.712;2023-10-09T09:15:23;19.70;1.00
48575;DHT22;34352;51.084;3.712;2023-10-09T09:18:06;19.90;1.00
48575;DHT22;34352;51.084;3.712;2023-10-09T09:20:36;20.20;1.00
48575;DHT22;34352;51.084;3.712;2023-10-09T09:23:10;20.10;1.00
48575;DHT22;34352;51.084;3.712;2023-10-09T09:26:10;20.10;1.00
48575;DHT22;34352;51.084;3.712;2023-10-09T09:28:51;19.90;1.00
48575;DHT22;34352;51.084;3.712;2023-10-09T09:34:54;19.90;1.00
48575;DHT22;34352;51.084;3.712;2023-10-09T09:38:13;19.80;1.00
48575;DHT22;34352;51.084;3.712;2023-10-09T09:40:38;19.70;1.00
48575;DHT22;34352;51.084;3.712;2023-10-09T09:43:07;19.60;1.00
48575;DHT22;34352;51.084;3.712;2023-10-09T09:45:47;19.60;1.00
48575;DHT22;34352;51.084;3.712;2023-10-09T09:48:30;19.50;1.00
48575;DHT22;34352;51.084;3.712;2023-10-09T09:54:20;19.70;1.00
48575;DHT22;34352;51.084;3.712;2023-10-09T09:56:51;19.90;1.00
48575;DHT22;34352;51.084;3.712;2023-10-09T10:02:47;20.50;1.00
48575;DHT22;34352;51.084;3.712;2023-10-09T10:05:13;20.80;1.00
48575;DHT22;34352;51.084;3.712;2023-10-09T10:07:48;21.00;1.00
48575;DHT22;34352;51.084;3.712;2023-10-09T10:10:39;21.20;1.00
48575;DHT22;34352;51.084;3.712;2023-10-09T10:13:54;21.30;1.00
48575;DHT22;34352;51.084;3.712;2023-10-09T10:16:23;21.00;1.00
48575;DHT22;34352;51.084;3.712;2023-10-09T10:22:28;20.90;1.00
48575;DHT22;34352;51.084;3.712;2023-10-09T10:24:57;21.20;1.00
48575;DHT22;34352;51.084;3.712;2023-10-09T10:36:44;21.70;1.00
48575;DHT22;34352;51.084;3.712;2023-10-09T10:39:10;21.70;1.00
48575;DHT22;34352;51.084;3.712;2023-10-09T10:41:37;21.90;1.00
48575;DHT22;34352;51.084;3.712;2023-10-09T10:44:42;22.00;1.00
48575;DHT22;34352;51.084;3.712;2023-10-09T10:47:27;22.20;1.00
48575;DHT22;34352;51.084;3.712;2023-10-09T10:50:36;22.10;1.00
48575;DHT22;34352;51.084;3.712;2023-10-09T10:56:24;22.20;1.00
48575;DHT22;34352;51.084;3.712;2023-10-09T10:59:15;22.60;1.00
48575;DHT22;34352;51.084;3.712;2023-10-09T11:02:20;22.70;1.00
48575;DHT22;34352;51.084;3.712;2023-10-09T11:05:04;22.90;1.00
48575;DHT22;34352;51.084;3.712;2023-10-09T11:07:56;22.90;1.00
48575;DHT22;34352;51.084;3.712;2023-10-09T11:10:40;23.00;1.00
48575;DHT22;34352;51.084;3.712;2023-10-09T11:13:41;23.00;1.00
48575;DHT22;34352;51.084;3.712;2023-10-09T11:16:36;23.00;1.00
48575;DHT22;34352;51.084;3.712;2023-10-09T11:19:14;22.90;1.00
48575;DHT22;34352;51.084;3.712;2023-10-09T11:22:00;23.00;1.00
48575;DHT22;34352;51.084;3.712;2023-10-09T11:31:35;23.00;1.00
48575;DHT22;34352;51.084;3.712;2023-10-09T11:44:10;23.80;1.00
48575;DHT22;34352;51.084;3.712;2023-10-09T11:46:58;24.00;1.00
48575;DHT22;34352;51.084;3.712;2023-10-09T11:49:30;24.30;1.00
48575;DHT22;34352;51.084;3.712;2023-10-09T11:52:09;24.50;1.00
48575;DHT22;34352;51.084;3.712;2023-10-09T11:58:42;24.90;1.00
48575;DHT22;34352;51.084;3.712;2023-10-09T12:01:23;24.90;1.00
48575;DHT22;34352;51.084;3.712;2023-10-09T12:07:11;25.40;1.00
48575;DHT22;34352;51.084;3.712;2023-10-09T12:09:39;25.40;1.00
48575;DHT22;34352;51.084;3.712;2023-10-09T12:12:15;25.50;1.00
48575;DHT22;34352;51.084;3.712;2023-10-09T12:14:41;25.30;1.00
48575;DHT22;34352;51.084;3.712;2023-10-09T12:17:40;25.10;1.00
48575;DHT22;34352;51.084;3.712;2023-10-09T12:23:24;24.70;1.00
48575;DHT22;34352;51.084;3.712;2023-10-09T12:25:53;24.60;1.00
48575;DHT22;34352;51.084;3.712;2023-10-09T12:28:35;24.50;1.00
48575;DHT22;34352;51.084;3.712;2023-10-09T12:34:37;24.50;1.00
48575;DHT22;34352;51.084;3.712;2023-10-09T12:40:25;24.30;1.00
48575;DHT22;34352;51.084;3.712;2023-10-09T12:43:10;24.20;1.00
48575;DHT22;34352;51.084;3.712;2023-10-09T12:48:56;24.20;1.00
48575;DHT22;34352;51.084;3.712;2023-10-09T12:51:35;24.50;1.00
48575;DHT22;34352;51.084;3.712;2023-10-09T12:57:37;24.40;1.00
48575;DHT22;34352;51.084;3.712;2023-10-09T13:00:06;24.30;1.00
48575;DHT22;34352;51.084;3.712;2023-10-09T13:06:02;24.70;1.00
48575;DHT22;34352;51.084;3.712;2023-10-09T13:11:47;25.90;1.00
48575;DHT22;34352;51.084;3.712;2023-10-09T13:14:13;26.40;99.90
48575;DHT22;34352;51.084;3.712;2023-10-09T13:16:49;26.60;99.90
48575;DHT22;34352;51.084;3.712;2023-10-09T13:19:19;26.70;99.90
48575;DHT22;34352;51.084;3.712;2023-10-09T13:21:51;26.50;99.90
48575;DHT22;34352;51.084;3.712;2023-10-09T13:24:26;26.70;99.90
48575;DHT22;34352;51.084;3.712;2023-10-09T13:30:21;27.40;99.90
48575;DHT22;34352;51.084;3.712;2023-10-09T13:33:03;26.80;99.90
48575;DHT22;34352;51.084;3.712;2023-10-09T13:39:03;26.40;99.90
48575;DHT22;34352;51.084;3.712;2023-10-09T13:51:36;25.60;99.90
48575;DHT22;34352;51.084;3.712;2023-10-09T13:54:12;25.30;99.90
48575;DHT22;34352;51.084;3.712;2023-10-09T13:56:56;25.30;99.90
48575;DHT22;34352;51.084;3.712;2023-10-09T13:59:48;25.20;99.90
48575;DHT22;34352;51.084;3.712;2023-10-09T14:02:23;25.10;99.90
48575;DHT22;34352;51.084;3.712;2023-10-09T14:11:06;24.30;99.90
48575;DHT22;34352;51.084;3.712;2023-10-09T14:13:40;24.30;99.90
48575;DHT22;34352;51.084;3.712;2023-10-09T14:16:42;24.30;99.90
48575;DHT22;34352;51.084;3.712;2023-10-09T14:19:32;24.20;99.90
48575;DHT22;34352;51.084;3.712;2023-10-09T14:21:58;24.00;99.90
48575;DHT22;34352;51.084;3.712;2023-10-09T14:24:33;23.80;99.90
48575;DHT22;34352;51.084;3.712;2023-10-09T14:27:05;23.60;99.90
48575;DHT22;34352;51.084;3.712;2023-10-09T14:29:40;23.50;1.00
48575;DHT22;34352;51.084;3.712;2023-10-09T14:32:11;23.30;1.00
48575;DHT22;34352;51.084;3.712;2023-10-09T14:34:41;23.20;1.00
48575;DHT22;34352;51.084;3.712;2023-10-09T14:40:46;23.20;1.00
48575;DHT22;34352;51.084;3.712;2023-10-09T14:43:15;23.20;1.00
48575;DHT22;34352;51.084;3.712;2023-10-09T14:49:26;23.00;1.00
48575;DHT22;34352;51.084;3.712;2023-10-09T14:51:55;22.90;1.00
48575;DHT22;34352;51.084;3.712;2023-10-09T15:01:09;22.80;1.00
48575;DHT22;34352;51.084;3.712;2023-10-09T15:04:01;22.90;1.00
48575;DHT22;34352;51.084;3.712;2023-10-09T15:10:03;23.30;1.00
48575;DHT22;34352;51.084;3.712;2023-10-09T15:12:36;23.40;1.00
48575;DHT22;34352;51.084;3.712;2023-10-09T15:18:31;23.40;1.00
48575;DHT22;34352;51.084;3.712;2023-10-09T15:21:11;23.40;1.00
48575;DHT22;34352;51.084;3.712;2023-10-09T15:23:42;23.30;1.00
48575;DHT22;34352;51.084;3.712;2023-10-09T15:26:13;23.30;1.00
48575;DHT22;34352;51.084;3.712;2023-10-09T15:28:42;23.20;1.00
48575;DHT22;34352;51.084;3.712;2023-10-09T15:31:08;23.10;1.00
48575;DHT22;34352;51.084;3.712;2023-10-09T15:33:38;22.90;1.00
48575;DHT22;34352;51.084;3.712;2023-10-09T15:39:36;23.00;1.00
48575;DHT22;34352;51.084;3.712;2023-10-09T15:42:16;22.90;1.00
48575;DHT22;34352;51.084;3.712;2023-10-09T15:44:58;22.80;1.00
48575;DHT22;34352;51.084;3.712;2023-10-09T15:47:36;22.70;1.00
48575;DHT22;34352;51.084;3.712;2023-10-09T15:53:01;22.40;1.00
48575;DHT22;34352;51.084;3.712;2023-10-09T15:55:28;22.30;1.00
48575;DHT22;34352;51.084;3.712;2023-10-09T15:57:56;22.20;1.00
48575;DHT22;34352;51.084;3.712;2023-10-09T16:00:38;22.10;1.00
48575;DHT22;34352;51.084;3.712;2023-10-09T16:03:05;22.10;1.00
48575;DHT22;34352;51.084;3.712;2023-10-09T16:05:57;22.10;1.00
48575;DHT22;34352;51.084;3.712;2023-10-09T16:08:34;22.10;1.00
48575;DHT22;34352;51.084;3.712;2023-10-09T16:11:05;22.10;1.00
48575;DHT22;34352;51.084;3.712;2023-10-09T16:14:08;22.00;1.00
48575;DHT22;34352;51.084;3.712;2023-10-09T16:17:08;22.00;1.00
48575;DHT22;34352;51.084;3.712;2023-10-09T16:22:55;22.00;1.00
48575;DHT22;34352;51.084;3.712;2023-10-09T16:25:27;21.90;1.00
48575;DHT22;34352;51.084;3.712;2023-10-09T16:28:04;21.80;1.00
48575;DHT22;34352;51.084;3.712;2023-10-09T16:31:07;21.70;1.00
48575;DHT22;34352;51.084;3.712;2023-10-09T16:33:54;21.70;1.00
48575;DHT22;34352;51.084;3.712;2023-10-09T16:39:30;20.80;1.00
48575;DHT22;34352;51.084;3.712;2023-10-09T16:42:15;20.30;1.00
48575;DHT22;34352;51.084;3.712;2023-10-09T16:44:54;19.90;1.00
48575;DHT22;34352;51.084;3.712;2023-10-09T16:47:23;19.50;2.50
48575;DHT22;34352;51.084;3.712;2023-10-09T16:49:51;19.20;19.90
48575;DHT22;34352;51.084;3.712;2023-10-09T16:52:24;18.90;28.70
48575;DHT22;34352;51.084;3.712;2023-10-09T16:55:18;18.80;34.80
48575;DHT22;34352;51.084;3.712;2023-10-09T16:57:46;18.70;42.00
48575;DHT22;34352;51.084;3.712;2023-10-09T17:00:28;18.60;50.80
48575;DHT22;34352;51.084;3.712;2023-10-09T17:06:28;18.30;63.00
48575;DHT22;34352;51.084;3.712;2023-10-09T17:08:57;18.30;70.50
48575;DHT22;34352;51.084;3.712;2023-10-09T17:11:40;18.30;76.30
48575;DHT22;34352;51.084;3.712;2023-10-09T17:14:27;18.30;81.70
48575;DHT22;34352;51.084;3.712;2023-10-09T17:16:54;18.20;82.30
48575;DHT22;34352;51.084;3.712;2023-10-09T17:19:22;18.20;85.60
48575;DHT22;34352;51.084;3.712;2023-10-09T17:22:10;18.10;87.60
48575;DHT22;34352;51.084;3.712;2023-10-09T17:24:50;18.10;86.70
48575;DHT22;34352;51.084;3.712;2023-10-09T17:27:20;18.10;86.30
48575;DHT22;34352;51.084;3.712;2023-10-09T17:32:58;18.00;86.90
48575;DHT22;34352;51.084;3.712;2023-10-09T17:35:25;18.00;87.90
48575;DHT22;34352;51.084;3.712;2023-10-09T17:38:04;17.90;87.90
48575;DHT22;34352;51.084;3.712;2023-10-09T17:41:00;17.80;88.20
48575;DHT22;34352;51.084;3.712;2023-10-09T17:43:28;17.80;88.20
48575;DHT22;34352;51.084;3.712;2023-10-09T17:45:57;17.80;88.40
48575;DHT22;34352;51.084;3.712;2023-10-09T17:48:35;17.80;88.70
48575;DHT22;34352;51.084;3.712;2023-10-09T17:51:14;17.80;88.00
48575;DHT22;34352;51.084;3.712;2023-10-09T17:54:17;17.80;89.00
48575;DHT22;34352;51.084;3.712;2023-10-09T17:56:48;17.70;88.90
48575;DHT22;34352;51.084;3.712;2023-10-09T17:59:39;17.70;89.00
48575;DHT22;34352;51.084;3.712;2023-10-09T18:02:23;17.70;90.10
48575;DHT22;34352;51.084;3.712;2023-10-09T18:05:00;17.70;90.00
48575;DHT22;34352;51.084;3.712;2023-10-09T18:07:26;17.70;89.70
48575;DHT22;34352;51.084;3.712;2023-10-09T18:10:01;17.70;88.90
48575;DHT22;34352;51.084;3.712;2023-10-09T18:12:55;17.70;88.50
48575;DHT22;34352;51.084;3.712;2023-10-09T18:15:26;17.60;88.80
48575;DHT22;34352;51.084;3.712;2023-10-09T18:18:00;17.50;88.90
48575;DHT22;34352;51.084;3.712;2023-10-09T18:20:28;17.50;89.00
48575;DHT22;34352;51.084;3.712;2023-10-09T18:23:00;17.50;88.60
48575;DHT22;34352;51.084;3.712;2023-10-09T18:25:48;17.40;88.30
48575;DHT22;34352;51.084;3.712;2023-10-09T18:31:35;17.30;88.80
48575;DHT22;34352;51.084;3.712;2023-10-09T18:34:05;17.20;88.80
48575;DHT22;34352;51.084;3.712;2023-10-09T18:36:58;17.20;89.10
48575;DHT22;34352;51.084;3.712;2023-10-09T18:39:26;17.10;89.50
48575;DHT22;34352;51.084;3.712;2023-10-09T18:42:03;17.10;88.80
48575;DHT22;34352;51.084;3.712;2023-10-09T18:44:45;17.00;88.60
48575;DHT22;34352;51.084;3.712;2023-10-09T18:50:25;16.90;89.50
48575;DHT22;34352;51.084;3.712;2023-10-09T18:52:55;16.90;89.00
48575;DHT22;34352;51.084;3.712;2023-10-09T18:55:28;16.90;89.70
48575;DHT22;34352;51.084;3.712;2023-10-09T18:58:17;16.80;90.10
48575;DHT22;34352;51.084;3.712;2023-10-09T19:00:50;16.80;90.00
48575;DHT22;34352;51.084;3.712;2023-10-09T19:06:14;16.70;89.70
48575;DHT22;34352;51.084;3.712;2023-10-09T19:08:46;16.70;89.50
48575;DHT22;34352;51.084;3.712;2023-10-09T19:11:13;16.50;89.00
48575;DHT22;34352;51.084;3.712;2023-10-09T19:13:44;16.50;90.00
48575;DHT22;34352;51.084;3.712;2023-10-09T19:16:29;16.50;90.40
48575;DHT22;34352;51.084;3.712;2023-10-09T19:18:55;16.40;90.30
48575;DHT22;34352;51.084;3.712;2023-10-09T19:21:28;16.40;90.10
48575;DHT22;34352;51.084;3.712;2023-10-09T19:24:01;16.40;89.90
48575;DHT22;34352;51.084;3.712;2023-10-09T19:26:31;16.40;90.20
48575;DHT22;34352;51.084;3.712;2023-10-09T19:29:00;16.30;90.30
48575;DHT22;34352;51.084;3.712;2023-10-09T19:31:27;16.30;90.00
48575;DHT22;34352;51.084;3.712;2023-10-09T19:34:03;16.30;90.10
48575;DHT22;34352;51.084;3.712;2023-10-09T19:36:30;16.30;90.10
48575;DHT22;34352;51.084;3.712;2023-10-09T19:39:00;16.20;89.90
48575;DHT22;34352;51.084;3.712;2023-10-09T19:41:26;16.20;90.00
48575;DHT22;34352;51.084;3.712;2023-10-09T19:47:15;16.20;90.10
48575;DHT22;34352;51.084;3.712;2023-10-09T19:49:58;16.10;90.00
48575;DHT22;34352;51.084;3.712;2023-10-09T19:52:46;16.10;90.00
48575;DHT22;34352;51.084;3.712;2023-10-09T19:55:16;16.10;90.10
48575;DHT22;34352;51.084;3.712;2023-10-09T19:57:50;16.00;90.20
48575;DHT22;34352;51.084;3.712;2023-10-09T20:00:22;16.00;90.00
48575;DHT22;34352;51.084;3.712;2023-10-09T20:02:55;16.00;90.10
48575;DHT22;34352;51.084;3.712;2023-10-09T20:05:31;16.00;90.10
48575;DHT22;34352;51.084;3.712;2023-10-09T20:08:09;15.90;90.10
48575;DHT22;34352;51.084;3.712;2023-10-09T20:10:34;15.80;89.70
48575;DHT22;34352;51.084;3.712;2023-10-09T20:13:10;15.70;90.00
48575;DHT22;34352;51.084;3.712;2023-10-09T20:15:42;15.70;90.30
48575;DHT22;34352;51.084;3.712;2023-10-09T20:18:27;15.80;90.40
48575;DHT22;34352;51.084;3.712;2023-10-09T20:20:59;15.80;90.60
48575;DHT22;34352;51.084;3.712;2023-10-09T20:23:40;15.80;90.40
48575;DHT22;34352;51.084;3.712;2023-10-09T20:26:43;15.70;90.20
48575;DHT22;34352;51.084;3.712;2023-10-09T20:29:10;15.60;90.00
48575;DHT22;34352;51.084;3.712;2023-10-09T20:31:41;15.60;90.40
48575;DHT22;34352;51.084;3.712;2023-10-09T20:34:35;15.60;90.40
48575;DHT22;34352;51.084;3.712;2023-10-09T20:37:27;15.60;90.30
48575;DHT22;34352;51.084;3.712;2023-10-09T20:43:41;15.50;90.20
48575;DHT22;34352;51.084;3.712;2023-10-09T20:46:08;15.50;90.00
48575;DHT22;34352;51.084;3.712;2023-10-09T20:48:38;15.40;89.90
48575;DHT22;34352;51.084;3.712;2023-10-09T20:51:04;15.40;90.30
48575;DHT22;34352;51.084;3.712;2023-10-09T20:53:52;15.40;90.30
48575;DHT22;34352;51.084;3.712;2023-10-09T20:56:39;15.40;90.10
48575;DHT22;34352;51.084;3.712;2023-10-09T21:02:43;15.30;90.60
48575;DHT22;34352;51.084;3.712;2023-10-09T21:05:21;15.30;90.70
48575;DHT22;34352;51.084;3.712;2023-10-09T21:08:04;15.30;90.40
48575;DHT22;34352;51.084;3.712;2023-10-09T21:11:06;15.30;90.30
48575;DHT22;34352;51.084;3.712;2023-10-09T21:13:53;15.20;90.10
48575;DHT22;34352;51.084;3.712;2023-10-09T21:19:41;15.10;89.70
48575;DHT22;34352;51.084;3.712;2023-10-09T21:26:13;15.00;89.20
48575;DHT22;34352;51.084;3.712;2023-10-09T21:28:51;15.00;89.80
48575;DHT22;34352;51.084;3.712;2023-10-09T21:31:18;14.90;90.20
48575;DHT22;34352;51.084;3.712;2023-10-09T21:34:01;15.00;90.10
48575;DHT22;34352;51.084;3.712;2023-10-09T21:47:50;14.80;90.20
48575;DHT22;34352;51.084;3.712;2023-10-09T21:50:53;14.80;90.40
48575;DHT22;34352;51.084;3.712;2023-10-09T21:56:22;14.80;90.50
48575;DHT22;34352;51.084;3.712;2023-10-09T22:04:48;14.60;90.00
48575;DHT22;34352;51.084;3.712;2023-10-09T22:07:47;14.60;90.00
48575;DHT22;34352;51.084;3.712;2023-10-09T22:10:41;14.60;90.30
48575;DHT22;34352;51.084;3.712;2023-10-09T22:16:57;14.50;90.10
48575;DHT22;34352;51.084;3.712;2023-10-09T22:19:44;14.50;90.30
48575;DHT22;34352;51.084;3.712;2023-10-09T22:22:37;14.50;90.20
48575;DHT22;34352;51.084;3.712;2023-10-09T22:25:40;14.50;90.10
48575;DHT22;34352;51.084;3.712;2023-10-09T22:29:06;14.40;90.20
48575;DHT22;34352;51.084;3.712;2023-10-09T22:32:02;14.40;90.20
48575;DHT22;34352;51.084;3.712;2023-10-09T22:34:50;14.40;90.20
48575;DHT22;34352;51.084;3.712;2023-10-09T22:37:31;14.40;90.20
48575;DHT22;34352;51.084;3.712;2023-10-09T22:40:35;14.30;90.10
48575;DHT22;34352;51.084;3.712;2023-10-09T22:43:57;14.30;90.20
48575;DHT22;34352;51.084;3.712;2023-10-09T23:37:04;13.90;90.20
48575;DHT22;34352;51.084;3.712;2023-10-09T23:43:02;13.90;90.30
